createdAt,value
2022-10-12T00:01:40.911Z,101005.81
2022-10-12T00:05:42.801Z,101011.94
2022-10-12T00:09:44.694Z,101022.31
2022-10-12T00:13:46.736Z,101022.72
2022-10-12T00:17:48.539Z,101024.22
2022-10-12T00:21:50.353Z,101017.91
2022-10-12T00:25:52.201Z,101013.63
2022-10-12T00:29:53.968Z,100999.56
2022-10-12T00:33:56.016Z,101017.09
2022-10-12T00:37:57.796Z,101018.59
2022-10-12T00:41:59.637Z,101028.72
2022-10-12T00:46:03.522Z,101021.56
2022-10-12T00:50:27.950Z,101014.69
2022-10-12T00:54:36.385Z,101025.56
2022-10-12T00:58:38.310Z,101009.75
2022-10-12T01:02:41.586Z,101014.59
2022-10-12T01:06:43.514Z,101014.59
2022-10-12T01:10:45.384Z,101005.06
2022-10-12T01:14:47.186Z,101007.75
2022-10-12T01:19:30.871Z,100990.03
2022-10-12T01:24:16.023Z,100999.16
2022-10-12T01:29:04.876Z,101010.56
2022-10-12T01:33:20.680Z,101024.84
2022-10-12T01:37:37.696Z,101015.03
2022-10-12T01:42:00.937Z,101013.28
2022-10-12T01:46:26.102Z,101014.47
2022-10-12T01:50:35.361Z,101009.19
2022-10-12T01:55:24.222Z,101006.66
2022-10-12T01:59:40.821Z,101006.59
2022-10-12T02:04:08.679Z,100998.50
2022-10-12T02:08:40.883Z,100996.47
2022-10-12T02:12:49.651Z,100981.28
2022-10-12T02:17:04.733Z,101002.22
2022-10-12T02:21:12.727Z,101019.09
2022-10-12T02:25:15.899Z,101005.56
2022-10-12T02:29:22.106Z,101000.75
2022-10-12T02:34:02.435Z,101012.78
2022-10-12T02:38:11.161Z,101000.38
2022-10-12T02:42:16.726Z,101001.47
2022-10-12T02:46:18.874Z,100984.06
2022-10-12T02:50:21.143Z,100997.03
2022-10-12T02:54:23.228Z,100998.91
2022-10-12T02:58:25.797Z,101001.94
2022-10-12T03:02:27.670Z,101000.56
2022-10-12T03:06:29.472Z,100993.31
2022-10-12T03:10:31.622Z,101001.47
2022-10-12T03:14:35.097Z,100998.06
2022-10-12T03:18:38.402Z,100995.91
2022-10-12T03:22:40.245Z,100983.78
2022-10-12T03:26:41.990Z,100996.09
2022-10-12T03:30:44.426Z,100996.56
2022-10-12T03:34:46.258Z,100999.06
2022-10-12T03:38:48.027Z,100998.69
2022-10-12T03:42:49.835Z,100993.13
2022-10-12T03:46:51.622Z,100990.13
2022-10-12T03:50:53.595Z,100989.94
2022-10-12T03:54:55.368Z,100994.19
2022-10-12T03:58:57.214Z,100989.09
2022-10-12T04:02:59.034Z,100996.84
2022-10-12T04:07:05.190Z,100994.78
2022-10-12T04:11:09.381Z,100981.22
2022-10-12T04:15:16.018Z,100989.59
2022-10-12T04:19:34.489Z,100985.69
2022-10-12T04:23:36.405Z,100985.53
2022-10-12T04:27:38.583Z,100987.47
2022-10-12T04:31:43.985Z,100986.13
2022-10-12T04:35:57.006Z,100992.06
2022-10-12T04:39:58.964Z,100992.25
2022-10-12T04:44:10.958Z,100991.19
2022-10-12T04:48:12.945Z,100984.88
2022-10-12T04:52:14.905Z,100991.38
2022-10-12T04:56:16.845Z,100978.69
2022-10-12T05:00:18.907Z,100987.72
2022-10-12T05:04:20.969Z,100984.97
2022-10-12T05:08:22.903Z,101007.13
2022-10-12T05:12:25.196Z,100993.47
2022-10-12T05:16:27.039Z,100989.50
2022-10-12T05:20:28.942Z,100996.84
2022-10-12T05:24:30.969Z,101001.94
2022-10-12T05:28:37.002Z,100989.78
2022-10-12T05:32:43.824Z,100998.84
2022-10-12T05:37:01.552Z,100991.16
2022-10-12T05:41:03.483Z,100999.06
2022-10-12T05:45:08.603Z,100993.75
2022-10-12T05:49:10.632Z,100983.88
2022-10-12T05:53:12.555Z,100987.16
2022-10-12T05:57:17.187Z,100983.19
2022-10-12T06:01:19.243Z,100997.22
2022-10-12T06:05:21.193Z,100992.56
2022-10-12T06:09:23.190Z,100980.34
2022-10-12T06:13:33.111Z,100981.63
2022-10-12T06:17:35.127Z,100973.06
2022-10-12T06:21:37.085Z,100974.66
2022-10-12T06:25:39.022Z,100970.44
2022-10-12T06:29:45.115Z,100974.53
2022-10-12T06:34:21.922Z,100967.16
2022-10-12T06:38:23.989Z,100965.53
2022-10-12T06:42:27.816Z,100969.94
2022-10-12T06:46:29.945Z,100975.94
2022-10-12T06:50:31.807Z,100982.16
2022-10-12T06:54:33.903Z,100982.75
2022-10-12T06:58:35.879Z,100981.16
2022-10-12T07:02:38.009Z,100976.44
2022-10-12T07:06:40.119Z,100975.69
2022-10-12T07:10:42.023Z,100985.88
2022-10-12T07:14:43.908Z,100977.47
2022-10-12T07:18:45.885Z,100966.31
2022-10-12T07:22:47.839Z,100975.22
2022-10-12T07:26:51.505Z,100966.00
2022-10-12T07:30:53.378Z,100973.78
2022-10-12T07:34:55.243Z,100960.56
2022-10-12T07:38:59.512Z,100955.81
2022-10-12T07:43:16.861Z,100952.75
2022-10-12T07:47:19.436Z,100950.69
2022-10-12T07:51:21.390Z,100947.06
2022-10-12T07:55:23.365Z,100947.78
2022-10-12T07:59:25.275Z,100958.94
2022-10-12T08:03:27.083Z,100950.03
2022-10-12T08:07:29.060Z,100953.81
2022-10-12T08:11:31.006Z,100955.69
2022-10-12T08:15:32.914Z,100954.25
2022-10-12T08:19:36.054Z,100948.03
2022-10-12T08:23:38.053Z,100933.19
2022-10-12T08:27:40.123Z,100939.44
2022-10-12T08:31:42.269Z,100937.50
2022-10-12T08:35:47.485Z,100933.38
2022-10-12T08:39:51.301Z,100933.34
2022-10-12T08:44:08.089Z,100938.78
2022-10-12T08:48:29.312Z,100932.69
2022-10-12T08:52:35.005Z,100927.31
2022-10-12T08:56:39.855Z,100925.72
2022-10-12T09:00:41.822Z,100910.16
2022-10-12T09:04:52.834Z,100910.06
2022-10-12T09:09:06.846Z,100905.66
2022-10-12T09:13:30.634Z,100908.38
2022-10-12T09:17:54.372Z,100899.31
2022-10-12T09:21:56.550Z,100902.00
2022-10-12T09:26:13.808Z,100908.22
2022-10-12T09:30:36.499Z,100911.88
2022-10-12T09:34:51.168Z,100905.59
2022-10-12T09:43:26.703Z,100891.25
2022-10-12T09:47:31.903Z,100878.19
2022-10-12T09:52:12.762Z,100878.56
2022-10-12T09:56:33.603Z,100886.22
2022-10-12T10:00:54.894Z,100889.31
2022-10-12T10:05:37.831Z,100873.38
2022-10-12T10:09:40.449Z,100878.44
2022-10-12T10:14:06.803Z,100870.28
2022-10-12T10:23:42.346Z,100848.97
2022-10-12T10:27:57.936Z,100845.38
2022-10-12T10:32:46.445Z,100846.19
2022-10-12T10:36:56.304Z,100845.44
2022-10-12T10:41:13.331Z,100856.25
2022-10-12T10:45:47.414Z,100843.00
2022-10-12T10:49:54.168Z,100839.34
2022-10-12T10:53:56.134Z,100840.56
2022-10-12T10:58:02.851Z,100833.91
2022-10-12T11:02:16.439Z,100822.09
2022-10-12T11:06:26.673Z,100824.22
2022-10-12T11:11:05.544Z,100821.31
2022-10-12T11:15:15.739Z,100829.91
2022-10-12T11:19:39.298Z,100825.75
2022-10-12T11:23:58.410Z,100797.22
2022-10-12T11:28:00.347Z,100803.13
2022-10-12T11:32:25.438Z,100788.34
2022-10-12T11:36:28.003Z,100783.75
2022-10-12T11:44:56.051Z,100777.34
2022-10-12T11:49:27.543Z,100774.06
2022-10-12T11:53:49.562Z,100769.91
2022-10-12T11:57:51.472Z,100771.09
2022-10-12T12:02:17.583Z,100769.09
2022-10-12T12:06:31.668Z,100757.06
2022-10-12T12:10:37.101Z,100750.47
2022-10-12T12:15:54.558Z,100749.78
2022-10-12T12:20:46.471Z,100752.13
2022-10-12T12:29:33.360Z,100723.38
2022-10-12T12:34:59.973Z,100733.06
2022-10-12T12:39:06.060Z,100723.25
2022-10-12T12:49:53.475Z,100740.53
2022-10-12T12:58:55.648Z,100731.97
2022-10-12T13:03:23.456Z,100717.13
2022-10-12T13:07:51.761Z,100711.38
2022-10-12T13:12:12.740Z,100714.03
2022-10-12T13:21:08.314Z,100718.56
2022-10-12T13:25:20.098Z,100692.69
2022-10-12T13:29:54.539Z,100689.38
2022-10-12T13:34:13.427Z,100695.34
2022-10-12T13:38:15.218Z,100696.59
2022-10-12T13:42:18.546Z,100683.84
2022-10-12T13:46:59.051Z,100666.69
2022-10-12T13:51:03.295Z,100682.91
2022-10-12T13:55:29.609Z,100667.81
2022-10-12T13:59:59.181Z,100653.81
2022-10-12T14:04:14.769Z,100676.41
2022-10-12T14:08:22.244Z,100661.69
2022-10-12T14:12:25.704Z,100660.75
2022-10-12T14:16:27.938Z,100662.88
2022-10-12T14:20:37.289Z,100658.31
2022-10-12T14:24:58.718Z,100656.50
2022-10-12T14:29:12.400Z,100659.84
2022-10-12T14:33:16.991Z,100650.28
2022-10-12T14:37:24.330Z,100663.13
2022-10-12T14:41:31.699Z,100636.88
2022-10-12T14:45:33.973Z,100637.91
2022-10-12T14:49:50.728Z,100639.59
2022-10-12T14:54:05.224Z,100630.84
2022-10-12T14:58:39.015Z,100627.72
2022-10-12T15:08:31.981Z,100639.25
2022-10-12T15:12:47.836Z,100613.56
2022-10-12T15:16:55.141Z,100606.47
2022-10-12T15:21:14.568Z,100616.38
2022-10-12T15:26:06.976Z,100617.69
2022-10-12T15:30:16.495Z,100591.97
2022-10-12T15:34:20.029Z,100608.97
2022-10-12T15:38:24.398Z,100595.09
2022-10-12T15:42:26.503Z,100613.94
2022-10-12T15:46:33.720Z,100614.59
2022-10-12T15:50:43.997Z,100616.09
2022-10-12T15:55:10.058Z,100592.53
2022-10-12T15:59:29.065Z,100590.72
2022-10-12T16:03:33.421Z,100610.44
2022-10-12T16:07:36.672Z,100606.97
2022-10-12T16:11:40.545Z,100610.56
2022-10-12T16:15:44.065Z,100598.34
2022-10-12T16:20:05.033Z,100607.22
2022-10-12T16:24:14.635Z,100616.41
2022-10-12T16:28:25.419Z,100605.31
2022-10-12T16:32:37.726Z,100609.25
2022-10-12T16:37:15.969Z,100618.25
2022-10-12T16:41:33.207Z,100619.25
2022-10-12T16:51:20.687Z,100623.97
2022-10-12T16:55:27.403Z,100628.28
2022-10-12T16:59:53.245Z,100619.44
2022-10-12T17:04:01.989Z,100632.78
2022-10-12T17:08:07.145Z,100622.66
2022-10-12T17:12:16.713Z,100622.59
2022-10-12T17:17:10.737Z,100637.00
2022-10-12T17:25:44.438Z,100639.53
2022-10-12T17:30:46.213Z,100643.34
2022-10-12T17:35:04.102Z,100648.72
2022-10-12T17:39:24.276Z,100649.16
2022-10-12T17:44:17.508Z,100642.63
2022-10-12T17:49:15.623Z,100643.81
2022-10-12T17:53:35.292Z,100630.22
2022-10-12T17:58:05.288Z,100640.13
2022-10-12T18:02:28.107Z,100647.41
2022-10-12T18:13:13.314Z,100654.44
2022-10-12T18:17:55.001Z,100638.75
2022-10-12T20:31:28.676Z,100643.94
2022-10-12T20:36:52.675Z,100640.28
2022-10-12T20:41:16.740Z,100652.63
2022-10-12T20:45:23.650Z,100649.25
2022-10-12T20:49:39.455Z,100648.47
2022-10-12T20:53:46.081Z,100641.28
2022-10-12T20:58:08.925Z,100643.25
2022-10-12T21:02:26.680Z,100648.94
2022-10-12T21:06:32.303Z,100642.66
2022-10-12T21:10:49.152Z,100639.88
2022-10-12T21:14:53.368Z,100631.06
2022-10-12T21:18:58.554Z,100628.09
2022-10-12T21:23:00.596Z,100622.72
2022-10-12T21:27:02.792Z,100635.41
2022-10-12T21:31:13.353Z,100633.31
2022-10-12T21:35:26.129Z,100637.09
2022-10-12T21:39:54.388Z,100622.72
2022-10-12T21:43:59.638Z,100628.72
2022-10-12T21:48:21.611Z,100638.50
2022-10-12T21:54:41.880Z,100629.13
2022-10-12T21:58:26.699Z,100632.84
2022-10-12T22:02:43.282Z,100640.69
2022-10-12T22:06:45.364Z,100647.50
2022-10-12T22:10:54.477Z,100628.03
2022-10-12T22:15:25.032Z,100637.53
2022-10-12T22:19:26.947Z,100646.53
2022-10-12T22:23:28.976Z,100635.13
2022-10-12T22:27:30.931Z,100629.22
2022-10-12T22:31:36.966Z,100631.34
2022-10-12T22:35:38.929Z,100633.84
2022-10-12T22:39:40.923Z,100626.63
2022-10-12T22:43:45.406Z,100623.53
2022-10-12T22:47:47.395Z,100620.41
2022-10-12T22:51:49.570Z,100625.81
2022-10-12T22:56:08.389Z,100621.50
2022-10-12T23:00:11.314Z,100607.16
2022-10-12T23:04:13.204Z,100615.56
2022-10-12T23:08:15.301Z,100612.25
2022-10-12T23:12:20.240Z,100616.41
2022-10-12T23:16:25.290Z,100611.13
2022-10-12T23:20:29.842Z,100612.47
2022-10-12T23:24:31.780Z,100614.78
2022-10-12T23:28:36.061Z,100601.28
2022-10-12T23:32:38.100Z,100603.22
2022-10-12T23:36:40.022Z,100591.97
2022-10-12T23:40:47.940Z,100598.47
2022-10-12T23:44:52.333Z,100599.41
2022-10-12T23:49:00.178Z,100603.22
2022-10-12T23:53:05.866Z,100597.00
2022-10-12T23:57:34.347Z,100590.19
